PWSweather.com
Personal Weather Stations
Station Observations
URBANDALE
Westwind Acres And Meredith Hills, Urbandale, IA 50322

Westwind Acres And Meredith HillsUrbandale, IA 50322

Lat: 41.643, Lon: -93.709

Elevation: 928

Station Type:

http://urbandaleweather.com

High Low Average
Temperature 54.3°F12.4°C 44.1°F6.7°C 48.4°F9.1°C
Dew Point 48.0°F8.9°C 43.3°F6.3°C 45.6°F7.6°C
Winds 2.0 mph 3.2 kmh Calm Calm Calm SSECalm SSE
Wind Gusts 6.0 mph9.7 kmh -- 1.0 mph1.6 kmh
Humidity 97% 77% 90%
Pressure 30.13 in1020.3 mb 29.90 in1012.5 mb -
Precipitation 0.06 in1.5 mm - -
Hour Temp Dew Point Humidity Winds Wind Gusts Pressure Precip Precip Rate Daily Precip Total
12:03 AM 45.0°F7.2°C 44.2°F6.8°C 97% Calm Calm 0.9 mph1.4 kmh 29.94 in1013.9 mb 0.00 in0.0 mm 0.00 in0.0 mm 0.00 in0.0 mm
12:08 AM 45.0°F7.2°C 44.2°F6.8°C 97% Calm Calm 3.0 mph4.8 kmh 29.94 in1013.9 mb 0.00 in0.0 mm 0.00 in0.0 mm 0.00 in0.0 mm
12:13 AM 45.0°F7.2°C 44.2°F6.8°C 97% 0.9 mph NE1.4 kmh NE 2.0 mph3.2 kmh 29.93 in1013.5 mb 0.00 in0.0 mm 0.00 in0.0 mm 0.00 in0.0 mm
12:18 AM 45.0°F7.2°C 44.2°F6.8°C 97% 0.9 mph NNE1.4 kmh NNE 5.0 mph8.0 kmh 29.93 in1013.5 mb 0.00 in0.0 mm 0.00 in0.0 mm 0.00 in0.0 mm
12:23 AM 45.0°F7.2°C 44.2°F6.8°C 97% 0.9 mph E1.4 kmh E 2.9 mph4.7 kmh 29.93 in1013.5 mb 0.00 in0.0 mm 0.00 in0.0 mm 0.00 in0.0 mm
12:28 AM 45.0°F7.2°C 44.2°F6.8°C 97% 0.9 mph NNE1.4 kmh NNE 4.0 mph6.4 kmh 29.93 in1013.5 mb 0.00 in0.0 mm 0.00 in0.0 mm 0.00 in0.0 mm
12:33 AM 44.8°F7.1°C 44.1°F6.7°C 97% 0.9 mph ENE1.4 kmh ENE 5.0 mph8.0 kmh 29.92 in1013.2 mb 0.00 in0.0 mm 0.00 in0.0 mm 0.00 in0.0 mm
12:38 AM 44.8°F7.1°C 44.1°F6.7°C 97% 2.0 mph NE3.2 kmh NE 2.9 mph4.7 kmh 29.92 in1013.2 mb 0.00 in0.0 mm 0.00 in0.0 mm 0.00 in0.0 mm
12:43 AM 44.8°F7.1°C 44.1°F6.7°C 97% 0.9 mph NE1.4 kmh NE 2.0 mph3.2 kmh 29.92 in1013.2 mb 0.00 in0.0 mm 0.00 in0.0 mm 0.00 in0.0 mm
12:48 AM 44.8°F7.1°C 44.1°F6.7°C 97% Calm Calm 2.9 mph4.7 kmh 29.92 in1013.2 mb 0.00 in0.0 mm 0.00 in0.0 mm 0.00 in0.0 mm
12:53 AM 44.8°F7.1°C 44.1°F6.7°C 97% Calm Calm 0.9 mph1.4 kmh 29.92 in1013.2 mb 0.00 in0.0 mm 0.00 in0.0 mm 0.00 in0.0 mm
12:58 AM 44.8°F7.1°C 44.1°F6.7°C 97% Calm Calm 2.0 mph3.2 kmh 29.92 in1013.2 mb 0.00 in0.0 mm 0.00 in0.0 mm 0.00 in0.0 mm
01:03 AM 44.8°F7.1°C 44.1°F6.7°C 97% Calm Calm 2.0 mph3.2 kmh 29.91 in1012.9 mb 0.00 in0.0 mm 0.00 in0.0 mm 0.00 in0.0 mm
01:08 AM 44.8°F7.1°C 44.1°F6.7°C 97% Calm Calm 0.9 mph1.4 kmh 29.91 in1012.9 mb 0.00 in0.0 mm 0.00 in0.0 mm 0.00 in0.0 mm
01:13 AM 44.8°F7.1°C 44.1°F6.7°C 97% Calm Calm 0.9 mph1.4 kmh 29.90 in1012.5 mb 0.00 in0.0 mm 0.00 in0.0 mm 0.00 in0.0 mm
01:18 AM 44.8°F7.1°C 44.1°F6.7°C 97% Calm Calm 2.0 mph3.2 kmh 29.90 in1012.5 mb 0.00 in0.0 mm 0.00 in0.0 mm 0.00 in0.0 mm
01:23 AM 44.8°F7.1°C 44.1°F6.7°C 97% Calm Calm 2.0 mph3.2 kmh 29.90 in1012.5 mb 0.01 in0.3 mm 0.12 in3.0 mm 0.01 in0.3 mm
01:28 AM 44.8°F7.1°C 44.1°F6.7°C 97% Calm Calm 2.0 mph3.2 kmh 29.90 in1012.5 mb 0.01 in0.3 mm 0.00 in0.0 mm 0.01 in0.3 mm
01:33 AM 44.8°F7.1°C 44.1°F6.7°C 97% Calm Calm 2.0 mph3.2 kmh 29.91 in1012.9 mb 0.01 in0.3 mm 0.00 in0.0 mm 0.01 in0.3 mm
01:38 AM 44.8°F7.1°C 44.1°F6.7°C 97% Calm Calm 0.9 mph1.4 kmh 29.91 in1012.9 mb 0.02 in0.5 mm 0.12 in3.0 mm 0.02 in0.5 mm
01:43 AM 44.8°F7.1°C 44.1°F6.7°C 97% Calm Calm -- 29.90 in1012.5 mb 0.02 in0.5 mm 0.00 in0.0 mm 0.02 in0.5 mm
01:48 AM 44.8°F7.1°C 44.1°F6.7°C 97% Calm Calm -- 29.90 in1012.5 mb 0.02 in0.5 mm 0.00 in0.0 mm 0.02 in0.5 mm
01:53 AM 44.8°F7.1°C 44.1°F6.7°C 97% Calm Calm -- 29.91 in1012.9 mb 0.03 in0.8 mm 0.12 in3.0 mm 0.03 in0.8 mm
01:58 AM 44.8°F7.1°C 44.1°F6.7°C 97% Calm Calm -- 29.91 in1012.9 mb 0.03 in0.8 mm 0.00 in0.0 mm 0.03 in0.8 mm
02:03 AM 44.8°F7.1°C 44.1°F6.7°C 97% Calm Calm -- 29.92 in1013.2 mb 0.03 in0.8 mm 0.00 in0.0 mm 0.03 in0.8 mm
02:08 AM 44.8°F7.1°C 44.1°F6.7°C 97% Calm Calm -- 29.92 in1013.2 mb 0.04 in1.0 mm 0.12 in3.0 mm 0.04 in1.0 mm
02:13 AM 44.8°F7.1°C 44.1°F6.7°C 97% Calm Calm -- 29.93 in1013.5 mb 0.04 in1.0 mm 0.00 in0.0 mm 0.04 in1.0 mm
02:18 AM 44.8°F7.1°C 44.1°F6.7°C 97% Calm Calm -- 29.93 in1013.5 mb 0.04 in1.0 mm 0.00 in0.0 mm 0.04 in1.0 mm
02:23 AM 44.8°F7.1°C 44.1°F6.7°C 97% Calm Calm 1.0 mph1.6 kmh 29.92 in1013.2 mb 0.03 in0.8 mm 0.00 in0.0 mm 0.04 in1.0 mm
02:28 AM 44.8°F7.1°C 44.1°F6.7°C 97% Calm Calm 2.0 mph3.2 kmh 29.92 in1013.2 mb 0.04 in1.0 mm 0.12 in3.0 mm 0.05 in1.3 mm
02:33 AM 44.8°F7.1°C 44.1°F6.7°C 97% Calm Calm 2.0 mph3.2 kmh 29.92 in1013.2 mb 0.04 in1.0 mm 0.00 in0.0 mm 0.05 in1.3 mm
02:38 AM 44.8°F7.1°C 44.1°F6.7°C 97% Calm Calm 0.9 mph1.4 kmh 29.92 in1013.2 mb 0.03 in0.8 mm 0.00 in0.0 mm 0.05 in1.3 mm
02:43 AM 44.8°F7.1°C 44.1°F6.7°C 97% 0.9 mph NNE1.4 kmh NNE 3.0 mph4.8 kmh 29.92 in1013.2 mb 0.03 in0.8 mm 0.00 in0.0 mm 0.05 in1.3 mm
02:48 AM 44.6°F7.0°C 43.9°F6.6°C 97% 0.9 mph N1.4 kmh N 4.0 mph6.4 kmh 29.92 in1013.2 mb 0.03 in0.8 mm 0.00 in0.0 mm 0.05 in1.3 mm
02:53 AM 44.6°F7.0°C 43.9°F6.6°C 97% 0.9 mph WNW1.4 kmh WNW 2.0 mph3.2 kmh 29.92 in1013.2 mb 0.02 in0.5 mm 0.00 in0.0 mm 0.05 in1.3 mm
02:58 AM 44.6°F7.0°C 43.9°F6.6°C 97% Calm Calm 2.0 mph3.2 kmh 29.92 in1013.2 mb 0.02 in0.5 mm 0.00 in0.0 mm 0.05 in1.3 mm
03:03 AM 44.6°F7.0°C 43.9°F6.6°C 97% Calm Calm 3.0 mph4.8 kmh 29.92 in1013.2 mb 0.02 in0.5 mm 0.00 in0.0 mm 0.05 in1.3 mm
03:08 AM 44.4°F6.9°C 43.7°F6.5°C 97% 0.9 mph NE1.4 kmh NE 3.0 mph4.8 kmh 29.92 in1013.2 mb 0.01 in0.3 mm 0.00 in0.0 mm 0.05 in1.3 mm
03:13 AM 44.4°F6.9°C 43.7°F6.5°C 97% 0.9 mph NE1.4 kmh NE 2.0 mph3.2 kmh 29.92 in1013.2 mb 0.01 in0.3 mm 0.00 in0.0 mm 0.05 in1.3 mm
03:18 AM 44.4°F6.9°C 43.7°F6.5°C 97% Calm Calm 0.9 mph1.4 kmh 29.92 in1013.2 mb 0.01 in0.3 mm 0.00 in0.0 mm 0.05 in1.3 mm
03:23 AM 44.4°F6.9°C 43.7°F6.5°C 97% Calm Calm 3.0 mph4.8 kmh 29.91 in1012.9 mb 0.00 in0.0 mm 0.00 in0.0 mm 0.05 in1.3 mm
03:28 AM 44.4°F6.9°C 43.7°F6.5°C 97% Calm Calm 0.9 mph1.4 kmh 29.91 in1012.9 mb 0.00 in0.0 mm 0.00 in0.0 mm 0.05 in1.3 mm
03:33 AM 44.2°F6.8°C 43.5°F6.4°C 97% 0.9 mph NNE1.4 kmh NNE 2.9 mph4.7 kmh 29.91 in1012.9 mb 0.00 in0.0 mm 0.00 in0.0 mm 0.05 in1.3 mm
03:38 AM 44.2°F6.8°C 43.5°F6.4°C 97% 0.9 mph NNE1.4 kmh NNE 2.9 mph4.7 kmh 29.91 in1012.9 mb 0.00 in0.0 mm 0.00 in0.0 mm 0.05 in1.3 mm
03:43 AM 44.2°F6.8°C 43.5°F6.4°C 97% 0.9 mph NNE1.4 kmh NNE 2.9 mph4.7 kmh 29.91 in1012.9 mb 0.00 in0.0 mm 0.00 in0.0 mm 0.05 in1.3 mm
03:48 AM 44.2°F6.8°C 43.5°F6.4°C 97% Calm Calm 2.9 mph4.7 kmh 29.91 in1012.9 mb 0.00 in0.0 mm 0.00 in0.0 mm 0.05 in1.3 mm
03:53 AM 44.1°F6.7°C 43.3°F6.3°C 97% Calm Calm 2.9 mph4.7 kmh 29.92 in1013.2 mb 0.00 in0.0 mm 0.00 in0.0 mm 0.05 in1.3 mm
03:58 AM 44.1°F6.7°C 43.3°F6.3°C 97% 0.9 mph NNE1.4 kmh NNE 2.9 mph4.7 kmh 29.93 in1013.5 mb 0.01 in0.3 mm 0.12 in3.0 mm 0.06 in1.5 mm
04:03 AM 44.1°F6.7°C 43.3°F6.3°C 97% 0.9 mph NW1.4 kmh NW -- 29.93 in1013.5 mb 0.01 in0.3 mm 0.00 in0.0 mm 0.06 in1.5 mm
04:08 AM 44.1°F6.7°C 43.3°F6.3°C 97% Calm Calm -- 29.93 in1013.5 mb 0.01 in0.3 mm 0.00 in0.0 mm 0.06 in1.5 mm
04:13 AM 44.1°F6.7°C 43.3°F6.3°C 97% Calm Calm -- 29.93 in1013.5 mb 0.01 in0.3 mm 0.00 in0.0 mm 0.06 in1.5 mm
04:18 AM 44.1°F6.7°C 43.3°F6.3°C 97% Calm Calm -- 29.93 in1013.5 mb 0.01 in0.3 mm 0.00 in0.0 mm 0.06 in1.5 mm
04:23 AM 44.1°F6.7°C 43.3°F6.3°C 97% Calm Calm -- 29.93 in1013.5 mb 0.01 in0.3 mm 0.00 in0.0 mm 0.06 in1.5 mm
04:28 AM 44.1°F6.7°C 43.3°F6.3°C 97% Calm Calm -- 29.93 in1013.5 mb 0.01 in0.3 mm 0.00 in0.0 mm 0.06 in1.5 mm
04:33 AM 44.1°F6.7°C 43.3°F6.3°C 97% Calm Calm -- 29.93 in1013.5 mb 0.01 in0.3 mm 0.00 in0.0 mm 0.06 in1.5 mm
04:38 AM 44.1°F6.7°C 43.3°F6.3°C 97% Calm Calm -- 29.93 in1013.5 mb 0.01 in0.3 mm 0.00 in0.0 mm 0.06 in1.5 mm
04:43 AM 44.1°F6.7°C 43.3°F6.3°C 97% Calm Calm -- 29.93 in1013.5 mb 0.01 in0.3 mm 0.00 in0.0 mm 0.06 in1.5 mm
04:48 AM 44.1°F6.7°C 43.3°F6.3°C 97% Calm Calm -- 29.93 in1013.5 mb 0.01 in0.3 mm 0.00 in0.0 mm 0.06 in1.5 mm
04:53 AM 44.1°F6.7°C 43.3°F6.3°C 97% Calm Calm 4.0 mph6.4 kmh 29.93 in1013.5 mb 0.01 in0.3 mm 0.00 in0.0 mm 0.06 in1.5 mm
04:58 AM 44.1°F6.7°C 43.3°F6.3°C 97% Calm Calm 2.0 mph3.2 kmh 29.93 in1013.5 mb 0.00 in0.0 mm 0.00 in0.0 mm 0.06 in1.5 mm
05:03 AM 44.1°F6.7°C 43.3°F6.3°C 97% 0.9 mph NE1.4 kmh NE 2.0 mph3.2 kmh 29.93 in1013.5 mb 0.00 in0.0 mm 0.00 in0.0 mm 0.06 in1.5 mm
05:08 AM 44.1°F6.7°C 43.3°F6.3°C 97% Calm Calm 0.9 mph1.4 kmh 29.93 in1013.5 mb 0.00 in0.0 mm 0.00 in0.0 mm 0.06 in1.5 mm
05:13 AM 44.1°F6.7°C 43.3°F6.3°C 97% Calm Calm 0.9 mph1.4 kmh 29.93 in1013.5 mb 0.00 in0.0 mm 0.00 in0.0 mm 0.06 in1.5 mm
05:18 AM 44.1°F6.7°C 43.3°F6.3°C 97% Calm Calm 2.0 mph3.2 kmh 29.93 in1013.5 mb 0.00 in0.0 mm 0.00 in0.0 mm 0.06 in1.5 mm
05:23 AM 44.1°F6.7°C 43.3°F6.3°C 97% Calm Calm -- 29.94 in1013.9 mb 0.00 in0.0 mm 0.00 in0.0 mm 0.06 in1.5 mm
05:28 AM 44.1°F6.7°C 43.3°F6.3°C 97% Calm Calm -- 29.94 in1013.9 mb 0.00 in0.0 mm 0.00 in0.0 mm 0.06 in1.5 mm
05:33 AM 44.1°F6.7°C 43.3°F6.3°C 97% Calm Calm -- 29.94 in1013.9 mb 0.00 in0.0 mm 0.00 in0.0 mm 0.06 in1.5 mm
05:38 AM 44.1°F6.7°C 43.3°F6.3°C 97% Calm Calm -- 29.95 in1014.2 mb 0.00 in0.0 mm 0.00 in0.0 mm 0.06 in1.5 mm
05:43 AM 44.1°F6.7°C 43.3°F6.3°C 97% Calm Calm 2.0 mph3.2 kmh 29.95 in1014.2 mb 0.00 in0.0 mm 0.00 in0.0 mm 0.06 in1.5 mm
05:48 AM 44.1°F6.7°C 43.3°F6.3°C 97% Calm Calm 0.9 mph1.4 kmh 29.95 in1014.2 mb 0.00 in0.0 mm 0.00 in0.0 mm 0.06 in1.5 mm
05:53 AM 44.1°F6.7°C 43.3°F6.3°C 97% Calm Calm 0.9 mph1.4 kmh 29.95 in1014.2 mb 0.00 in0.0 mm 0.00 in0.0 mm 0.06 in1.5 mm
05:58 AM 44.1°F6.7°C 43.3°F6.3°C 97% Calm Calm 0.9 mph1.4 kmh 29.95 in1014.2 mb 0.00 in0.0 mm 0.00 in0.0 mm 0.06 in1.5 mm
06:03 AM 44.1°F6.7°C 43.3°F6.3°C 97% Calm Calm -- 29.95 in1014.2 mb 0.00 in0.0 mm 0.00 in0.0 mm 0.06 in1.5 mm
06:08 AM 44.2°F6.8°C 43.5°F6.4°C 97% Calm Calm 0.9 mph1.4 kmh 29.95 in1014.2 mb 0.00 in0.0 mm 0.00 in0.0 mm 0.06 in1.5 mm
06:13 AM 44.2°F6.8°C 43.5°F6.4°C 97% Calm Calm -- 29.96 in1014.6 mb 0.00 in0.0 mm 0.00 in0.0 mm 0.06 in1.5 mm
06:18 AM 44.2°F6.8°C 43.5°F6.4°C 97% Calm Calm 1.0 mph1.6 kmh 29.96 in1014.6 mb 0.00 in0.0 mm 0.00 in0.0 mm 0.06 in1.5 mm
06:23 AM 44.2°F6.8°C 43.5°F6.4°C 97% Calm Calm 2.0 mph3.2 kmh 29.97 in1014.9 mb 0.00 in0.0 mm 0.00 in0.0 mm 0.06 in1.5 mm
06:28 AM 44.2°F6.8°C 43.5°F6.4°C 97% Calm Calm 0.9 mph1.4 kmh 29.97 in1014.9 mb 0.00 in0.0 mm 0.00 in0.0 mm 0.06 in1.5 mm
06:33 AM 44.2°F6.8°C 43.5°F6.4°C 97% Calm Calm 2.0 mph3.2 kmh 29.97 in1014.9 mb 0.00 in0.0 mm 0.00 in0.0 mm 0.06 in1.5 mm
06:38 AM 44.2°F6.8°C 43.5°F6.4°C 97% Calm Calm -- 29.98 in1015.2 mb 0.00 in0.0 mm 0.00 in0.0 mm 0.06 in1.5 mm
06:43 AM 44.2°F6.8°C 43.5°F6.4°C 97% Calm Calm 2.0 mph3.2 kmh 29.98 in1015.2 mb 0.00 in0.0 mm 0.00 in0.0 mm 0.06 in1.5 mm
06:48 AM 44.2°F6.8°C 43.5°F6.4°C 97% Calm Calm -- 29.98 in1015.2 mb 0.00 in0.0 mm 0.00 in0.0 mm 0.06 in1.5 mm
06:53 AM 44.4°F6.9°C 43.7°F6.5°C 97% Calm Calm 1.0 mph1.6 kmh 29.98 in1015.2 mb 0.00 in0.0 mm 0.00 in0.0 mm 0.06 in1.5 mm
06:58 AM 44.4°F6.9°C 43.7°F6.5°C 97% Calm Calm -- 29.99 in1015.6 mb 0.00 in0.0 mm 0.00 in0.0 mm 0.06 in1.5 mm
07:03 AM 44.2°F6.8°C 43.5°F6.4°C 97% Calm Calm -- 29.98 in1015.2 mb 0.00 in0.0 mm 0.00 in0.0 mm 0.06 in1.5 mm
07:08 AM 44.4°F6.9°C 43.7°F6.5°C 97% Calm Calm -- 29.99 in1015.6 mb 0.00 in0.0 mm 0.00 in0.0 mm 0.06 in1.5 mm
07:13 AM 44.4°F6.9°C 43.7°F6.5°C 97% Calm Calm -- 29.99 in1015.6 mb 0.00 in0.0 mm 0.00 in0.0 mm 0.06 in1.5 mm
07:18 AM 44.4°F6.9°C 43.7°F6.5°C 97% Calm Calm -- 29.99 in1015.6 mb 0.00 in0.0 mm 0.00 in0.0 mm 0.06 in1.5 mm
07:23 AM 44.4°F6.9°C 43.7°F6.5°C 97% Calm Calm -- 29.98 in1015.2 mb 0.00 in0.0 mm 0.00 in0.0 mm 0.06 in1.5 mm
07:28 AM 44.4°F6.9°C 43.7°F6.5°C 97% Calm Calm -- 29.99 in1015.6 mb 0.00 in0.0 mm 0.00 in0.0 mm 0.06 in1.5 mm
07:33 AM 44.6°F7.0°C 43.9°F6.6°C 97% Calm Calm -- 29.98 in1015.2 mb 0.00 in0.0 mm 0.00 in0.0 mm 0.06 in1.5 mm
07:38 AM 44.6°F7.0°C 43.9°F6.6°C 97% Calm Calm -- 29.98 in1015.2 mb 0.00 in0.0 mm 0.00 in0.0 mm 0.06 in1.5 mm
07:43 AM 44.4°F6.9°C 43.7°F6.5°C 97% Calm Calm -- 29.99 in1015.6 mb 0.00 in0.0 mm 0.00 in0.0 mm 0.06 in1.5 mm
07:48 AM 44.6°F7.0°C 43.9°F6.6°C 97% Calm Calm -- 30.00 in1015.9 mb 0.00 in0.0 mm 0.00 in0.0 mm 0.06 in1.5 mm
07:53 AM 44.8°F7.1°C 44.1°F6.7°C 97% Calm Calm -- 30.00 in1015.9 mb 0.00 in0.0 mm 0.00 in0.0 mm 0.06 in1.5 mm
07:58 AM 44.8°F7.1°C 44.1°F6.7°C 97% Calm Calm -- 30.00 in1015.9 mb 0.00 in0.0 mm 0.00 in0.0 mm 0.06 in1.5 mm
08:03 AM 44.8°F7.1°C 44.1°F6.7°C 97% Calm Calm -- 30.00 in1015.9 mb 0.00 in0.0 mm 0.00 in0.0 mm 0.06 in1.5 mm
08:08 AM 45.0°F7.2°C 44.2°F6.8°C 97% Calm Calm -- 30.00 in1015.9 mb 0.00 in0.0 mm 0.00 in0.0 mm 0.06 in1.5 mm
08:13 AM 45.0°F7.2°C 44.2°F6.8°C 97% Calm Calm -- 30.00 in1015.9 mb 0.00 in0.0 mm 0.00 in0.0 mm 0.06 in1.5 mm
08:18 AM 45.0°F7.2°C 43.9°F6.6°C 96% Calm Calm -- 30.00 in1015.9 mb 0.00 in0.0 mm 0.00 in0.0 mm 0.06 in1.5 mm
08:23 AM 45.0°F7.2°C 43.9°F6.6°C 96% Calm Calm -- 30.00 in1015.9 mb 0.00 in0.0 mm 0.00 in0.0 mm 0.06 in1.5 mm
08:28 AM 45.1°F7.3°C 44.1°F6.7°C 96% Calm Calm -- 30.01 in1016.3 mb 0.00 in0.0 mm 0.00 in0.0 mm 0.06 in1.5 mm
08:33 AM 45.1°F7.3°C 44.1°F6.7°C 96% Calm Calm -- 30.01 in1016.3 mb 0.00 in0.0 mm 0.00 in0.0 mm 0.06 in1.5 mm
08:38 AM 45.1°F7.3°C 44.1°F6.7°C 96% Calm Calm -- 30.02 in1016.6 mb 0.00 in0.0 mm 0.00 in0.0 mm 0.06 in1.5 mm
08:43 AM 45.1°F7.3°C 44.1°F6.7°C 96% Calm Calm -- 30.02 in1016.6 mb 0.00 in0.0 mm 0.00 in0.0 mm 0.06 in1.5 mm
08:48 AM 45.1°F7.3°C 44.1°F6.7°C 96% Calm Calm -- 30.02 in1016.6 mb 0.00 in0.0 mm 0.00 in0.0 mm 0.06 in1.5 mm
08:53 AM 45.3°F7.4°C 44.2°F6.8°C 96% Calm Calm -- 30.03 in1016.9 mb 0.00 in0.0 mm 0.00 in0.0 mm 0.06 in1.5 mm
08:58 AM 45.3°F7.4°C 44.1°F6.7°C 95% Calm Calm -- 30.02 in1016.6 mb 0.00 in0.0 mm 0.00 in0.0 mm 0.06 in1.5 mm
09:03 AM 45.3°F7.4°C 44.2°F6.8°C 96% Calm Calm -- 30.03 in1016.9 mb 0.00 in0.0 mm 0.00 in0.0 mm 0.06 in1.5 mm
09:08 AM 45.5°F7.5°C 44.2°F6.8°C 95% Calm Calm -- 30.03 in1016.9 mb 0.00 in0.0 mm 0.00 in0.0 mm 0.06 in1.5 mm
09:13 AM 45.7°F7.6°C 44.6°F7.0°C 96% Calm Calm -- 30.03 in1016.9 mb 0.00 in0.0 mm 0.00 in0.0 mm 0.06 in1.5 mm
09:18 AM 45.9°F7.7°C 44.4°F6.9°C 95% Calm Calm -- 30.03 in1016.9 mb 0.00 in0.0 mm 0.00 in0.0 mm 0.06 in1.5 mm
09:23 AM 45.9°F7.7°C 44.4°F6.9°C 95% Calm Calm -- 30.03 in1016.9 mb 0.00 in0.0 mm 0.00 in0.0 mm 0.06 in1.5 mm
09:28 AM 46.0°F7.8°C 44.6°F7.0°C 95% Calm Calm -- 30.03 in1016.9 mb 0.00 in0.0 mm 0.00 in0.0 mm 0.06 in1.5 mm
09:33 AM 45.9°F7.7°C 44.2°F6.8°C 94% Calm Calm 3.0 mph4.8 kmh 30.03 in1016.9 mb 0.00 in0.0 mm 0.00 in0.0 mm 0.06 in1.5 mm
09:38 AM 45.9°F7.7°C 44.4°F6.9°C 95% Calm Calm 2.0 mph3.2 kmh 30.03 in1016.9 mb 0.00 in0.0 mm 0.00 in0.0 mm 0.06 in1.5 mm
09:43 AM 46.0°F7.8°C 44.6°F7.0°C 95% Calm Calm 0.9 mph1.4 kmh 30.03 in1016.9 mb 0.00 in0.0 mm 0.00 in0.0 mm 0.06 in1.5 mm
09:48 AM 46.2°F7.9°C 44.8°F7.1°C 95% Calm Calm 0.9 mph1.4 kmh 30.03 in1016.9 mb 0.00 in0.0 mm 0.00 in0.0 mm 0.06 in1.5 mm
09:53 AM 46.2°F7.9°C 44.8°F7.1°C 95% Calm Calm 3.0 mph4.8 kmh 30.04 in1017.3 mb 0.00 in0.0 mm 0.00 in0.0 mm 0.06 in1.5 mm
09:58 AM 46.6°F8.1°C 45.1°F7.3°C 95% Calm Calm 0.9 mph1.4 kmh 30.04 in1017.3 mb 0.00 in0.0 mm 0.00 in0.0 mm 0.06 in1.5 mm
10:03 AM 46.4°F8.0°C 44.8°F7.1°C 94% Calm Calm 2.0 mph3.2 kmh 30.04 in1017.3 mb 0.00 in0.0 mm 0.00 in0.0 mm 0.06 in1.5 mm
10:08 AM 46.4°F8.0°C 44.8°F7.1°C 94% Calm Calm 0.9 mph1.4 kmh 30.04 in1017.3 mb 0.00 in0.0 mm 0.00 in0.0 mm 0.06 in1.5 mm
10:13 AM 46.4°F8.0°C 44.8°F7.1°C 94% 0.9 mph NNE1.4 kmh NNE 3.0 mph4.8 kmh 30.04 in1017.3 mb 0.00 in0.0 mm 0.00 in0.0 mm 0.06 in1.5 mm
10:18 AM 46.2°F7.9°C 44.6°F7.0°C 94% 0.9 mph N1.4 kmh N 0.9 mph1.4 kmh 30.04 in1017.3 mb 0.00 in0.0 mm 0.00 in0.0 mm 0.06 in1.5 mm
10:23 AM 46.8°F8.2°C 45.1°F7.3°C 94% Calm Calm 0.9 mph1.4 kmh 30.04 in1017.3 mb 0.00 in0.0 mm 0.00 in0.0 mm 0.06 in1.5 mm
10:28 AM 47.1°F8.4°C 45.5°F7.5°C 94% Calm Calm -- 30.04 in1017.3 mb 0.00 in0.0 mm 0.00 in0.0 mm 0.06 in1.5 mm
10:33 AM 47.5°F8.6°C 45.5°F7.5°C 93% Calm Calm 1.0 mph1.6 kmh 30.05 in1017.6 mb 0.00 in0.0 mm 0.00 in0.0 mm 0.06 in1.5 mm
10:38 AM 47.7°F8.7°C 45.7°F7.6°C 93% Calm Calm 0.9 mph1.4 kmh 30.05 in1017.6 mb 0.00 in0.0 mm 0.00 in0.0 mm 0.06 in1.5 mm
10:43 AM 48.2°F9.0°C 46.0°F7.8°C 92% Calm Calm 2.0 mph3.2 kmh 30.04 in1017.3 mb 0.00 in0.0 mm 0.00 in0.0 mm 0.06 in1.5 mm
10:48 AM 48.0°F8.9°C 45.5°F7.5°C 91% 0.9 mph NNE1.4 kmh NNE 4.0 mph6.4 kmh 30.04 in1017.3 mb 0.00 in0.0 mm 0.00 in0.0 mm 0.06 in1.5 mm
10:53 AM 47.8°F8.8°C 45.3°F7.4°C 91% 2.0 mph NNW3.2 kmh NNW 4.0 mph6.4 kmh 30.04 in1017.3 mb 0.00 in0.0 mm 0.00 in0.0 mm 0.06 in1.5 mm
10:58 AM 48.0°F8.9°C 45.9°F7.7°C 92% 0.9 mph N1.4 kmh N 0.9 mph1.4 kmh 30.04 in1017.3 mb 0.00 in0.0 mm 0.00 in0.0 mm 0.06 in1.5 mm
11:03 AM 48.0°F8.9°C 45.5°F7.5°C 91% Calm Calm 2.0 mph3.2 kmh 30.04 in1017.3 mb 0.00 in0.0 mm 0.00 in0.0 mm 0.06 in1.5 mm
11:08 AM 48.0°F8.9°C 45.1°F7.3°C 90% Calm Calm 4.0 mph6.4 kmh 30.04 in1017.3 mb 0.00 in0.0 mm 0.00 in0.0 mm 0.06 in1.5 mm
11:13 AM 48.0°F8.9°C 45.1°F7.3°C 90% 0.9 mph E1.4 kmh E 2.0 mph3.2 kmh 30.04 in1017.3 mb 0.00 in0.0 mm 0.00 in0.0 mm 0.06 in1.5 mm
11:18 AM 48.6°F9.2°C 46.0°F7.8°C 91% Calm Calm 0.9 mph1.4 kmh 30.04 in1017.3 mb 0.00 in0.0 mm 0.00 in0.0 mm 0.06 in1.5 mm
11:23 AM 48.7°F9.3°C 45.7°F7.6°C 89% Calm Calm 2.0 mph3.2 kmh 30.04 in1017.3 mb 0.00 in0.0 mm 0.00 in0.0 mm 0.06 in1.5 mm
11:28 AM 48.7°F9.3°C 45.7°F7.6°C 89% 0.9 mph NNW1.4 kmh NNW 3.0 mph4.8 kmh 30.04 in1017.3 mb 0.00 in0.0 mm 0.00 in0.0 mm 0.06 in1.5 mm
11:33 AM 48.6°F9.2°C 45.5°F7.5°C 89% 0.9 mph NE1.4 kmh NE 2.9 mph4.7 kmh 30.04 in1017.3 mb 0.00 in0.0 mm 0.00 in0.0 mm 0.06 in1.5 mm
11:38 AM 48.6°F9.2°C 45.1°F7.3°C 88% 0.9 mph NW1.4 kmh NW 2.0 mph3.2 kmh 30.04 in1017.3 mb 0.00 in0.0 mm 0.00 in0.0 mm 0.06 in1.5 mm
11:43 AM 48.7°F9.3°C 45.7°F7.6°C 89% Calm Calm 2.0 mph3.2 kmh 30.04 in1017.3 mb 0.00 in0.0 mm 0.00 in0.0 mm 0.06 in1.5 mm
11:48 AM 48.9°F9.4°C 45.9°F7.7°C 89% Calm Calm 2.0 mph3.2 kmh 30.03 in1016.9 mb 0.00 in0.0 mm 0.00 in0.0 mm 0.06 in1.5 mm
11:53 AM 49.3°F9.6°C 45.9°F7.7°C 88% 0.9 mph NW1.4 kmh NW 3.0 mph4.8 kmh 30.03 in1016.9 mb 0.00 in0.0 mm 0.00 in0.0 mm 0.06 in1.5 mm
11:58 AM 49.6°F9.8°C 46.2°F7.9°C 88% 0.9 mph NW1.4 kmh NW 2.9 mph4.7 kmh 30.03 in1016.9 mb 0.00 in0.0 mm 0.00 in0.0 mm 0.06 in1.5 mm
12:03 PM 49.8°F9.9°C 46.0°F7.8°C 87% 0.9 mph N1.4 kmh N 2.0 mph3.2 kmh 30.03 in1016.9 mb 0.00 in0.0 mm 0.00 in0.0 mm 0.06 in1.5 mm
12:08 PM 50.2°F10.1°C 46.4°F8.0°C 87% 0.9 mph NNW1.4 kmh NNW 4.0 mph6.4 kmh 30.03 in1016.9 mb 0.00 in0.0 mm 0.00 in0.0 mm 0.06 in1.5 mm
12:13 PM 50.4°F10.2°C 46.6°F8.1°C 87% 0.9 mph NNE1.4 kmh NNE 4.0 mph6.4 kmh 30.03 in1016.9 mb 0.00 in0.0 mm 0.00 in0.0 mm 0.06 in1.5 mm
12:18 PM 50.4°F10.2°C 46.4°F8.0°C 86% 0.9 mph NNE1.4 kmh NNE 2.9 mph4.7 kmh 30.03 in1016.9 mb 0.00 in0.0 mm 0.00 in0.0 mm 0.06 in1.5 mm
12:23 PM 50.4°F10.2°C 46.4°F8.0°C 86% 0.9 mph NW1.4 kmh NW 2.9 mph4.7 kmh 30.03 in1016.9 mb 0.00 in0.0 mm 0.00 in0.0 mm 0.06 in1.5 mm
12:28 PM 50.7°F10.4°C 46.8°F8.2°C 86% 0.9 mph NW1.4 kmh NW 2.9 mph4.7 kmh 30.03 in1016.9 mb 0.00 in0.0 mm 0.00 in0.0 mm 0.06 in1.5 mm
12:33 PM 51.1°F10.6°C 46.0°F7.8°C 83% 0.9 mph W1.4 kmh W 5.0 mph8.0 kmh 30.03 in1016.9 mb 0.00 in0.0 mm 0.00 in0.0 mm 0.06 in1.5 mm
12:38 PM 51.4°F10.8°C 46.8°F8.2°C 84% 0.9 mph NW1.4 kmh NW 4.0 mph6.4 kmh 30.03 in1016.9 mb 0.00 in0.0 mm 0.00 in0.0 mm 0.06 in1.5 mm
12:43 PM 51.4°F10.8°C 46.2°F7.9°C 82% 0.9 mph SE1.4 kmh SE 2.9 mph4.7 kmh 30.03 in1016.9 mb 0.00 in0.0 mm 0.00 in0.0 mm 0.06 in1.5 mm
12:49 PM 51.6°F10.9°C 46.0°F7.8°C 81% 0.9 mph SE1.4 kmh SE 2.9 mph4.7 kmh 30.03 in1016.9 mb 0.00 in0.0 mm 0.00 in0.0 mm 0.06 in1.5 mm
12:54 PM 51.8°F11.0°C 46.2°F7.9°C 81% 0.9 mph E1.4 kmh E 2.0 mph3.2 kmh 30.03 in1016.9 mb 0.00 in0.0 mm 0.00 in0.0 mm 0.06 in1.5 mm
12:59 PM 52.2°F11.2°C 46.2°F7.9°C 80% 0.9 mph SE1.4 kmh SE 3.0 mph4.8 kmh 30.04 in1017.3 mb 0.00 in0.0 mm 0.00 in0.0 mm 0.06 in1.5 mm
01:09 PM 52.9°F11.6°C 46.9°F8.3°C 80% Calm Calm 2.0 mph3.2 kmh 30.04 in1017.3 mb 0.00 in0.0 mm 0.00 in0.0 mm 0.06 in1.5 mm
01:14 PM 52.9°F11.6°C 46.9°F8.3°C 80% 0.9 mph NNE1.4 kmh NNE 3.0 mph4.8 kmh 30.04 in1017.3 mb 0.00 in0.0 mm 0.00 in0.0 mm 0.06 in1.5 mm
01:19 PM 52.9°F11.6°C 46.6°F8.1°C 79% 0.9 mph ENE1.4 kmh ENE 4.0 mph6.4 kmh 30.05 in1017.6 mb 0.00 in0.0 mm 0.00 in0.0 mm 0.06 in1.5 mm
01:24 PM 53.1°F11.7°C 47.1°F8.4°C 80% 0.9 mph ENE1.4 kmh ENE 2.0 mph3.2 kmh 30.05 in1017.6 mb 0.00 in0.0 mm 0.00 in0.0 mm 0.06 in1.5 mm
01:29 PM 53.1°F11.7°C 46.8°F8.2°C 79% 0.9 mph E1.4 kmh E 2.9 mph4.7 kmh 30.04 in1017.3 mb 0.00 in0.0 mm 0.00 in0.0 mm 0.06 in1.5 mm
01:34 PM 53.1°F11.7°C 47.1°F8.4°C 80% 0.9 mph N1.4 kmh N 2.0 mph3.2 kmh 30.05 in1017.6 mb 0.00 in0.0 mm 0.00 in0.0 mm 0.06 in1.5 mm
01:39 PM 53.1°F11.7°C 46.8°F8.2°C 79% 0.9 mph WNW1.4 kmh WNW 3.0 mph4.8 kmh 30.05 in1017.6 mb 0.00 in0.0 mm 0.00 in0.0 mm 0.06 in1.5 mm
01:44 PM 53.1°F11.7°C 46.8°F8.2°C 79% 0.9 mph N1.4 kmh N 2.0 mph3.2 kmh 30.05 in1017.6 mb 0.00 in0.0 mm 0.00 in0.0 mm 0.06 in1.5 mm
01:49 PM 53.1°F11.7°C 47.1°F8.4°C 80% 0.9 mph W1.4 kmh W 2.9 mph4.7 kmh 30.04 in1017.3 mb 0.00 in0.0 mm 0.00 in0.0 mm 0.06 in1.5 mm
01:54 PM 53.1°F11.7°C 46.8°F8.2°C 79% 0.9 mph WSW1.4 kmh WSW 2.9 mph4.7 kmh 30.05 in1017.6 mb 0.00 in0.0 mm 0.00 in0.0 mm 0.06 in1.5 mm
01:59 PM 53.1°F11.7°C 46.4°F8.0°C 78% 0.9 mph ENE1.4 kmh ENE 4.0 mph6.4 kmh 30.05 in1017.6 mb 0.00 in0.0 mm 0.00 in0.0 mm 0.06 in1.5 mm
02:04 PM 53.4°F11.9°C 47.5°F8.6°C 80% 0.9 mph NE1.4 kmh NE 2.0 mph3.2 kmh 30.04 in1017.3 mb 0.00 in0.0 mm 0.00 in0.0 mm 0.06 in1.5 mm
02:09 PM 53.8°F12.1°C 46.8°F8.2°C 77% Calm Calm 4.0 mph6.4 kmh 30.04 in1017.3 mb 0.00 in0.0 mm 0.00 in0.0 mm 0.06 in1.5 mm
02:14 PM 54.0°F12.2°C 47.3°F8.5°C 78% 0.9 mph ENE1.4 kmh ENE 2.0 mph3.2 kmh 30.04 in1017.3 mb 0.00 in0.0 mm 0.00 in0.0 mm 0.06 in1.5 mm
02:19 PM 54.1°F12.3°C 47.5°F8.6°C 78% 0.9 mph NNE1.4 kmh NNE 2.9 mph4.7 kmh 30.04 in1017.3 mb 0.00 in0.0 mm 0.00 in0.0 mm 0.06 in1.5 mm
02:24 PM 54.0°F12.2°C 46.9°F8.3°C 77% 0.9 mph NE1.4 kmh NE 4.0 mph6.4 kmh 30.05 in1017.6 mb 0.00 in0.0 mm 0.00 in0.0 mm 0.06 in1.5 mm
02:29 PM 53.4°F11.9°C 46.8°F8.2°C 78% 0.9 mph ENE1.4 kmh ENE 2.9 mph4.7 kmh 30.05 in1017.6 mb 0.00 in0.0 mm 0.00 in0.0 mm 0.06 in1.5 mm
02:34 PM 53.8°F12.1°C 47.5°F8.6°C 79% Calm Calm 2.0 mph3.2 kmh 30.05 in1017.6 mb 0.00 in0.0 mm 0.00 in0.0 mm 0.06 in1.5 mm
02:39 PM 53.8°F12.1°C 47.5°F8.6°C 79% Calm Calm 0.9 mph1.4 kmh 30.05 in1017.6 mb 0.00 in0.0 mm 0.00 in0.0 mm 0.06 in1.5 mm
02:44 PM 53.8°F12.1°C 47.5°F8.6°C 79% Calm Calm 4.0 mph6.4 kmh 30.05 in1017.6 mb 0.00 in0.0 mm 0.00 in0.0 mm 0.06 in1.5 mm
02:49 PM 53.8°F12.1°C 46.8°F8.2°C 77% 0.9 mph E1.4 kmh E 2.0 mph3.2 kmh 30.05 in1017.6 mb 0.00 in0.0 mm 0.00 in0.0 mm 0.06 in1.5 mm
02:54 PM 53.8°F12.1°C 47.1°F8.4°C 78% Calm Calm -- 30.05 in1017.6 mb 0.00 in0.0 mm 0.00 in0.0 mm 0.06 in1.5 mm
02:59 PM 53.4°F11.9°C 46.4°F8.0°C 77% Calm Calm 0.9 mph1.4 kmh 30.05 in1017.6 mb 0.00 in0.0 mm 0.00 in0.0 mm 0.06 in1.5 mm
03:04 PM 53.4°F11.9°C 47.1°F8.4°C 79% Calm Calm 0.9 mph1.4 kmh 30.05 in1017.6 mb 0.00 in0.0 mm 0.00 in0.0 mm 0.06 in1.5 mm
03:09 PM 53.4°F11.9°C 46.8°F8.2°C 78% Calm Calm 2.0 mph3.2 kmh 30.05 in1017.6 mb 0.00 in0.0 mm 0.00 in0.0 mm 0.06 in1.5 mm
03:14 PM 53.4°F11.9°C 46.8°F8.2°C 78% Calm Calm 0.9 mph1.4 kmh 30.04 in1017.3 mb 0.00 in0.0 mm 0.00 in0.0 mm 0.06 in1.5 mm
03:19 PM 53.6°F12.0°C 46.9°F8.3°C 78% Calm Calm 4.0 mph6.4 kmh 30.04 in1017.3 mb 0.00 in0.0 mm 0.00 in0.0 mm 0.06 in1.5 mm
03:24 PM 53.6°F12.0°C 46.9°F8.3°C 78% 0.9 mph E1.4 kmh E 2.0 mph3.2 kmh 30.04 in1017.3 mb 0.00 in0.0 mm 0.00 in0.0 mm 0.06 in1.5 mm
03:29 PM 53.8°F12.1°C 47.5°F8.6°C 79% 0.9 mph E1.4 kmh E 2.0 mph3.2 kmh 30.04 in1017.3 mb 0.00 in0.0 mm 0.00 in0.0 mm 0.06 in1.5 mm
03:34 PM 54.0°F12.2°C 47.3°F8.5°C 78% Calm Calm 0.9 mph1.4 kmh 30.05 in1017.6 mb 0.00 in0.0 mm 0.00 in0.0 mm 0.06 in1.5 mm
03:39 PM 54.1°F12.3°C 47.5°F8.6°C 78% Calm Calm 2.0 mph3.2 kmh 30.05 in1017.6 mb 0.00 in0.0 mm 0.00 in0.0 mm 0.06 in1.5 mm
03:44 PM 54.0°F12.2°C 47.3°F8.5°C 78% Calm Calm 2.0 mph3.2 kmh 30.04 in1017.3 mb 0.00 in0.0 mm 0.00 in0.0 mm 0.06 in1.5 mm
03:49 PM 54.0°F12.2°C 47.3°F8.5°C 78% Calm Calm 3.0 mph4.8 kmh 30.04 in1017.3 mb 0.00 in0.0 mm 0.00 in0.0 mm 0.06 in1.5 mm
03:54 PM 53.8°F12.1°C 47.1°F8.4°C 78% 0.9 mph NE1.4 kmh NE 2.0 mph3.2 kmh 30.04 in1017.3 mb 0.00 in0.0 mm 0.00 in0.0 mm 0.06 in1.5 mm
03:59 PM 53.8°F12.1°C 47.5°F8.6°C 79% 0.9 mph NNW1.4 kmh NNW 3.0 mph4.8 kmh 30.04 in1017.3 mb 0.00 in0.0 mm 0.00 in0.0 mm 0.06 in1.5 mm
04:04 PM 53.8°F12.1°C 47.1°F8.4°C 78% 0.9 mph NNW1.4 kmh NNW 2.0 mph3.2 kmh 30.04 in1017.3 mb 0.00 in0.0 mm 0.00 in0.0 mm 0.06 in1.5 mm
04:09 PM 53.8°F12.1°C 47.5°F8.6°C 79% 0.9 mph NNE1.4 kmh NNE 2.0 mph3.2 kmh 30.04 in1017.3 mb 0.00 in0.0 mm 0.00 in0.0 mm 0.06 in1.5 mm
04:14 PM 54.0°F12.2°C 47.3°F8.5°C 78% 0.9 mph 1.4 kmh 2.0 mph3.2 kmh 30.04 in1017.3 mb 0.00 in0.0 mm 0.00 in0.0 mm 0.06 in1.5 mm
04:19 PM 53.8°F12.1°C 47.1°F8.4°C 78% Calm Calm 0.9 mph1.4 kmh 30.05 in1017.6 mb 0.00 in0.0 mm 0.00 in0.0 mm 0.06 in1.5 mm
04:24 PM 53.8°F12.1°C 47.5°F8.6°C 79% Calm Calm 2.0 mph3.2 kmh 30.05 in1017.6 mb 0.00 in0.0 mm 0.00 in0.0 mm 0.06 in1.5 mm
04:29 PM 53.8°F12.1°C 47.5°F8.6°C 79% Calm Calm 0.9 mph1.4 kmh 30.05 in1017.6 mb 0.00 in0.0 mm 0.00 in0.0 mm 0.06 in1.5 mm
04:34 PM 54.0°F12.2°C 48.0°F8.9°C 80% 0.9 mph NNE1.4 kmh NNE 3.0 mph4.8 kmh 30.03 in1016.9 mb 0.00 in0.0 mm 0.00 in0.0 mm 0.06 in1.5 mm
04:39 PM 54.1°F12.3°C 47.8°F8.8°C 79% 0.9 mph NE1.4 kmh NE 2.9 mph4.7 kmh 30.03 in1016.9 mb 0.00 in0.0 mm 0.00 in0.0 mm 0.06 in1.5 mm
04:44 PM 54.3°F12.4°C 48.0°F8.9°C 79% 0.9 mph NW1.4 kmh NW 0.9 mph1.4 kmh 30.05 in1017.6 mb 0.00 in0.0 mm 0.00 in0.0 mm 0.06 in1.5 mm
04:49 PM 54.1°F12.3°C 47.5°F8.6°C 78% Calm Calm 2.0 mph3.2 kmh 30.05 in1017.6 mb 0.00 in0.0 mm 0.00 in0.0 mm 0.06 in1.5 mm
04:54 PM 54.1°F12.3°C 47.8°F8.8°C 79% Calm Calm -- 30.05 in1017.6 mb 0.00 in0.0 mm 0.00 in0.0 mm 0.06 in1.5 mm
04:59 PM 54.1°F12.3°C 48.0°F8.9°C 80% Calm Calm -- 30.06 in1017.9 mb 0.00 in0.0 mm 0.00 in0.0 mm 0.06 in1.5 mm
05:04 PM 54.0°F12.2°C 47.7°F8.7°C 79% Calm Calm -- 30.06 in1017.9 mb 0.00 in0.0 mm 0.00 in0.0 mm 0.06 in1.5 mm
05:09 PM 53.8°F12.1°C 47.5°F8.6°C 79% Calm Calm -- 30.06 in1017.9 mb 0.00 in0.0 mm 0.00 in0.0 mm 0.06 in1.5 mm
05:14 PM 53.8°F12.1°C 47.8°F8.8°C 80% Calm Calm -- 30.06 in1017.9 mb 0.00 in0.0 mm 0.00 in0.0 mm 0.06 in1.5 mm
05:19 PM 53.6°F12.0°C 47.7°F8.7°C 80% Calm Calm -- 30.06 in1017.9 mb 0.00 in0.0 mm 0.00 in0.0 mm 0.06 in1.5 mm
05:24 PM 53.6°F12.0°C 47.7°F8.7°C 80% Calm Calm -- 30.06 in1017.9 mb 0.00 in0.0 mm 0.00 in0.0 mm 0.06 in1.5 mm
05:29 PM 53.6°F12.0°C 47.7°F8.7°C 80% Calm Calm -- 30.06 in1017.9 mb 0.00 in0.0 mm 0.00 in0.0 mm 0.06 in1.5 mm
05:34 PM 53.4°F11.9°C 47.5°F8.6°C 80% Calm Calm -- 30.06 in1017.9 mb 0.00 in0.0 mm 0.00 in0.0 mm 0.06 in1.5 mm
05:39 PM 53.4°F11.9°C 47.7°F8.7°C 81% Calm Calm -- 30.06 in1017.9 mb 0.00 in0.0 mm 0.00 in0.0 mm 0.06 in1.5 mm
05:44 PM 53.4°F11.9°C 47.7°F8.7°C 81% Calm Calm -- 30.06 in1017.9 mb 0.00 in0.0 mm 0.00 in0.0 mm 0.06 in1.5 mm
05:49 PM 53.2°F11.8°C 47.5°F8.6°C 81% Calm Calm -- 30.06 in1017.9 mb 0.00 in0.0 mm 0.00 in0.0 mm 0.06 in1.5 mm
05:54 PM 53.2°F11.8°C 47.5°F8.6°C 81% Calm Calm -- 30.06 in1017.9 mb 0.00 in0.0 mm 0.00 in0.0 mm 0.06 in1.5 mm
05:59 PM 53.2°F11.8°C 47.5°F8.6°C 81% Calm Calm -- 30.06 in1017.9 mb 0.00 in0.0 mm 0.00 in0.0 mm 0.06 in1.5 mm
06:04 PM 53.1°F11.7°C 47.7°F8.7°C 82% Calm Calm -- 30.06 in1017.9 mb 0.00 in0.0 mm 0.00 in0.0 mm 0.06 in1.5 mm
06:09 PM 53.1°F11.7°C 47.7°F8.7°C 82% Calm Calm -- 30.06 in1017.9 mb 0.00 in0.0 mm 0.00 in0.0 mm 0.06 in1.5 mm
06:14 PM 53.1°F11.7°C 48.0°F8.9°C 83% Calm Calm -- 30.06 in1017.9 mb 0.00 in0.0 mm 0.00 in0.0 mm 0.06 in1.5 mm
06:19 PM 52.9°F11.6°C 47.5°F8.6°C 82% Calm Calm -- 30.06 in1017.9 mb 0.00 in0.0 mm 0.00 in0.0 mm 0.06 in1.5 mm
06:24 PM 52.9°F11.6°C 47.8°F8.8°C 83% Calm Calm -- 30.06 in1017.9 mb 0.00 in0.0 mm 0.00 in0.0 mm 0.06 in1.5 mm
06:29 PM 52.7°F11.5°C 47.7°F8.7°C 83% Calm Calm -- 30.06 in1017.9 mb 0.00 in0.0 mm 0.00 in0.0 mm 0.06 in1.5 mm
06:34 PM 52.5°F11.4°C 47.8°F8.8°C 84% Calm Calm -- 30.06 in1017.9 mb 0.00 in0.0 mm 0.00 in0.0 mm 0.06 in1.5 mm
06:39 PM 52.5°F11.4°C 47.8°F8.8°C 84% Calm Calm -- 30.07 in1018.3 mb 0.00 in0.0 mm 0.00 in0.0 mm 0.06 in1.5 mm
06:44 PM 52.5°F11.4°C 47.8°F8.8°C 84% Calm Calm -- 30.07 in1018.3 mb 0.00 in0.0 mm 0.00 in0.0 mm 0.06 in1.5 mm
06:49 PM 52.3°F11.3°C 47.7°F8.7°C 84% Calm Calm -- 30.07 in1018.3 mb 0.00 in0.0 mm 0.00 in0.0 mm 0.06 in1.5 mm
06:54 PM 52.3°F11.3°C 47.7°F8.7°C 84% Calm Calm -- 30.07 in1018.3 mb 0.00 in0.0 mm 0.00 in0.0 mm 0.06 in1.5 mm
06:59 PM 52.3°F11.3°C 47.7°F8.7°C 84% Calm Calm -- 30.08 in1018.6 mb 0.00 in0.0 mm 0.00 in0.0 mm 0.06 in1.5 mm
07:04 PM 52.2°F11.2°C 47.8°F8.8°C 85% Calm Calm -- 30.08 in1018.6 mb 0.00 in0.0 mm 0.00 in0.0 mm 0.06 in1.5 mm
07:09 PM 52.2°F11.2°C 47.8°F8.8°C 85% Calm Calm -- 30.08 in1018.6 mb 0.00 in0.0 mm 0.00 in0.0 mm 0.06 in1.5 mm
07:14 PM 52.2°F11.2°C 47.8°F8.8°C 85% Calm Calm -- 30.09 in1019.0 mb 0.00 in0.0 mm 0.00 in0.0 mm 0.06 in1.5 mm
07:19 PM 52.2°F11.2°C 47.8°F8.8°C 85% Calm Calm -- 30.09 in1019.0 mb 0.00 in0.0 mm 0.00 in0.0 mm 0.06 in1.5 mm
07:24 PM 52.2°F11.2°C 47.8°F8.8°C 85% Calm Calm -- 30.09 in1019.0 mb 0.00 in0.0 mm 0.00 in0.0 mm 0.06 in1.5 mm
07:29 PM 52.2°F11.2°C 47.8°F8.8°C 85% Calm Calm -- 30.10 in1019.3 mb 0.00 in0.0 mm 0.00 in0.0 mm 0.06 in1.5 mm
07:34 PM 52.0°F11.1°C 47.7°F8.7°C 85% Calm Calm -- 30.10 in1019.3 mb 0.00 in0.0 mm 0.00 in0.0 mm 0.06 in1.5 mm
07:39 PM 52.0°F11.1°C 47.7°F8.7°C 85% Calm Calm -- 30.10 in1019.3 mb 0.00 in0.0 mm 0.00 in0.0 mm 0.06 in1.5 mm
07:44 PM 52.0°F11.1°C 47.7°F8.7°C 85% Calm Calm -- 30.10 in1019.3 mb 0.00 in0.0 mm 0.00 in0.0 mm 0.06 in1.5 mm
07:49 PM 52.0°F11.1°C 47.7°F8.7°C 85% Calm Calm -- 30.10 in1019.3 mb 0.00 in0.0 mm 0.00 in0.0 mm 0.06 in1.5 mm
07:54 PM 52.0°F11.1°C 47.7°F8.7°C 85% Calm Calm -- 30.11 in1019.6 mb 0.00 in0.0 mm 0.00 in0.0 mm 0.06 in1.5 mm
07:59 PM 52.0°F11.1°C 47.7°F8.7°C 85% Calm Calm -- 30.11 in1019.6 mb 0.00 in0.0 mm 0.00 in0.0 mm 0.06 in1.5 mm
08:04 PM 51.8°F11.0°C 47.5°F8.6°C 85% Calm Calm -- 30.11 in1019.6 mb 0.00 in0.0 mm 0.00 in0.0 mm 0.06 in1.5 mm
08:09 PM 51.6°F10.9°C 47.5°F8.6°C 86% Calm Calm -- 30.11 in1019.6 mb 0.00 in0.0 mm 0.00 in0.0 mm 0.06 in1.5 mm
08:14 PM 51.4°F10.8°C 47.5°F8.6°C 86% Calm Calm 3.0 mph4.8 kmh 30.11 in1019.6 mb 0.00 in0.0 mm 0.00 in0.0 mm 0.06 in1.5 mm
08:19 PM 51.3°F10.7°C 47.5°F8.6°C 87% Calm Calm 2.0 mph3.2 kmh 30.12 in1020.0 mb 0.00 in0.0 mm 0.00 in0.0 mm 0.06 in1.5 mm
08:24 PM 51.1°F10.6°C 47.7°F8.7°C 88% Calm Calm 0.9 mph1.4 kmh 30.12 in1020.0 mb 0.00 in0.0 mm 0.00 in0.0 mm 0.06 in1.5 mm
08:29 PM 50.7°F10.4°C 47.7°F8.7°C 89% Calm Calm 2.0 mph3.2 kmh 30.12 in1020.0 mb 0.00 in0.0 mm 0.00 in0.0 mm 0.06 in1.5 mm
08:34 PM 50.4°F10.2°C 47.5°F8.6°C 90% Calm Calm 0.9 mph1.4 kmh 30.12 in1020.0 mb 0.00 in0.0 mm 0.00 in0.0 mm 0.06 in1.5 mm
08:39 PM 50.2°F10.1°C 47.7°F8.7°C 91% Calm Calm 3.0 mph4.8 kmh 30.13 in1020.3 mb 0.00 in0.0 mm 0.00 in0.0 mm 0.06 in1.5 mm
08:44 PM 49.8°F9.9°C 47.7°F8.7°C 92% Calm Calm 2.0 mph3.2 kmh 30.12 in1020.0 mb 0.00 in0.0 mm 0.00 in0.0 mm 0.06 in1.5 mm
08:49 PM 49.8°F9.9°C 47.7°F8.7°C 92% Calm Calm 0.9 mph1.4 kmh 30.12 in1020.0 mb 0.00 in0.0 mm 0.00 in0.0 mm 0.06 in1.5 mm
08:54 PM 49.6°F9.8°C 47.7°F8.7°C 93% Calm Calm -- 30.12 in1020.0 mb 0.00 in0.0 mm 0.00 in0.0 mm 0.06 in1.5 mm
09:00 PM 49.5°F9.7°C 47.5°F8.6°C 93% Calm Calm 0.9 mph1.4 kmh 30.12 in1020.0 mb 0.00 in0.0 mm 0.00 in0.0 mm 0.06 in1.5 mm
09:05 PM 49.5°F9.7°C 47.8°F8.8°C 94% Calm Calm 0.9 mph1.4 kmh 30.12 in1020.0 mb 0.00 in0.0 mm 0.00 in0.0 mm 0.06 in1.5 mm
09:10 PM 49.5°F9.7°C 47.8°F8.8°C 94% Calm Calm 2.0 mph3.2 kmh 30.12 in1020.0 mb 0.00 in0.0 mm 0.00 in0.0 mm 0.06 in1.5 mm
09:15 PM 49.3°F9.6°C 47.7°F8.7°C 94% Calm Calm 2.0 mph3.2 kmh 30.12 in1020.0 mb 0.00 in0.0 mm 0.00 in0.0 mm 0.06 in1.5 mm
09:20 PM 49.3°F9.6°C 47.7°F8.7°C 94% 0.9 mph NNW1.4 kmh NNW 3.0 mph4.8 kmh 30.11 in1019.6 mb 0.00 in0.0 mm 0.00 in0.0 mm 0.06 in1.5 mm
09:25 PM 49.1°F9.5°C 47.5°F8.6°C 94% 2.0 mph NE3.2 kmh NE 5.0 mph8.0 kmh 30.11 in1019.6 mb 0.00 in0.0 mm 0.00 in0.0 mm 0.06 in1.5 mm
09:30 PM 48.9°F9.4°C 47.5°F8.6°C 95% 0.9 mph N1.4 kmh N 4.0 mph6.4 kmh 30.11 in1019.6 mb 0.00 in0.0 mm 0.00 in0.0 mm 0.06 in1.5 mm
09:35 PM 48.7°F9.3°C 47.1°F8.4°C 94% 0.9 mph NNE1.4 kmh NNE 6.0 mph9.7 kmh 30.11 in1019.6 mb 0.00 in0.0 mm 0.00 in0.0 mm 0.06 in1.5 mm
09:40 PM 48.6°F9.2°C 46.9°F8.3°C 94% 2.0 mph N3.2 kmh N 4.9 mph7.9 kmh 30.12 in1020.0 mb 0.00 in0.0 mm 0.00 in0.0 mm 0.06 in1.5 mm
09:45 PM 48.4°F9.1°C 46.9°F8.3°C 95% 2.0 mph NE3.2 kmh NE 6.0 mph9.7 kmh 30.11 in1019.6 mb 0.00 in0.0 mm 0.00 in0.0 mm 0.06 in1.5 mm
09:50 PM 48.4°F9.1°C 46.9°F8.3°C 95% 2.0 mph NNE3.2 kmh NNE 6.0 mph9.7 kmh 30.11 in1019.6 mb 0.00 in0.0 mm 0.00 in0.0 mm 0.06 in1.5 mm
09:55 PM 48.4°F9.1°C 46.9°F8.3°C 95% 2.0 mph NNE3.2 kmh NNE 4.9 mph7.9 kmh 30.10 in1019.3 mb 0.00 in0.0 mm 0.00 in0.0 mm 0.06 in1.5 mm
10:00 PM 48.0°F8.9°C 46.6°F8.1°C 95% 2.0 mph NNE3.2 kmh NNE 4.9 mph7.9 kmh 30.09 in1019.0 mb 0.00 in0.0 mm 0.00 in0.0 mm 0.06 in1.5 mm
10:05 PM 48.0°F8.9°C 46.6°F8.1°C 95% 2.0 mph N3.2 kmh N 4.0 mph6.4 kmh 30.10 in1019.3 mb 0.00 in0.0 mm 0.00 in0.0 mm 0.06 in1.5 mm
10:10 PM 48.0°F8.9°C 46.4°F8.0°C 94% 0.9 mph N1.4 kmh N 4.0 mph6.4 kmh 30.11 in1019.6 mb 0.00 in0.0 mm 0.00 in0.0 mm 0.06 in1.5 mm
10:15 PM 48.0°F8.9°C 46.4°F8.0°C 94% 0.9 mph N1.4 kmh N 2.0 mph3.2 kmh 30.12 in1020.0 mb 0.00 in0.0 mm 0.00 in0.0 mm 0.06 in1.5 mm
10:20 PM 48.0°F8.9°C 46.4°F8.0°C 94% Calm Calm 2.0 mph3.2 kmh 30.12 in1020.0 mb 0.00 in0.0 mm 0.00 in0.0 mm 0.06 in1.5 mm
10:25 PM 48.0°F8.9°C 46.4°F8.0°C 94% Calm Calm 3.0 mph4.8 kmh 30.12 in1020.0 mb 0.00 in0.0 mm 0.00 in0.0 mm 0.06 in1.5 mm
10:30 PM 48.0°F8.9°C 46.4°F8.0°C 94% Calm Calm -- 30.12 in1020.0 mb 0.00 in0.0 mm 0.00 in0.0 mm 0.06 in1.5 mm
10:40 PM 48.0°F8.9°C 46.4°F8.0°C 94% Calm Calm 4.0 mph6.4 kmh 30.11 in1019.6 mb 0.00 in0.0 mm 0.00 in0.0 mm 0.06 in1.5 mm
10:45 PM 48.0°F8.9°C 46.4°F8.0°C 94% Calm Calm 0.9 mph1.4 kmh 30.11 in1019.6 mb 0.00 in0.0 mm 0.00 in0.0 mm 0.06 in1.5 mm
10:50 PM 48.0°F8.9°C 46.4°F8.0°C 94% Calm Calm -- 30.11 in1019.6 mb 0.00 in0.0 mm 0.00 in0.0 mm 0.06 in1.5 mm
10:55 PM 48.0°F8.9°C 46.0°F7.8°C 93% Calm Calm 0.9 mph1.4 kmh 30.11 in1019.6 mb 0.00 in0.0 mm 0.00 in0.0 mm 0.06 in1.5 mm
11:00 PM 48.0°F8.9°C 46.0°F7.8°C 93% Calm Calm -- 30.11 in1019.6 mb 0.00 in0.0 mm 0.00 in0.0 mm 0.06 in1.5 mm
11:05 PM 48.0°F8.9°C 46.0°F7.8°C 93% Calm Calm -- 30.12 in1020.0 mb 0.00 in0.0 mm 0.00 in0.0 mm 0.06 in1.5 mm
11:10 PM 48.0°F8.9°C 46.0°F7.8°C 93% Calm Calm -- 30.12 in1020.0 mb 0.00 in0.0 mm 0.00 in0.0 mm 0.06 in1.5 mm
11:15 PM 48.0°F8.9°C 46.0°F7.8°C 93% Calm Calm 1.0 mph1.6 kmh 30.12 in1020.0 mb 0.00 in0.0 mm 0.00 in0.0 mm 0.06 in1.5 mm
11:20 PM 48.0°F8.9°C 46.0°F7.8°C 93% Calm Calm 0.9 mph1.4 kmh 30.11 in1019.6 mb 0.00 in0.0 mm 0.00 in0.0 mm 0.06 in1.5 mm
11:25 PM 48.0°F8.9°C 46.0°F7.8°C 93% Calm Calm 0.9 mph1.4 kmh 30.11 in1019.6 mb 0.00 in0.0 mm 0.00 in0.0 mm 0.06 in1.5 mm
11:30 PM 48.0°F8.9°C 46.0°F7.8°C 93% Calm Calm 2.0 mph3.2 kmh 30.11 in1019.6 mb 0.00 in0.0 mm 0.00 in0.0 mm 0.06 in1.5 mm
11:35 PM 48.0°F8.9°C 46.0°F7.8°C 93% Calm Calm 3.0 mph4.8 kmh 30.11 in1019.6 mb 0.00 in0.0 mm 0.00 in0.0 mm 0.06 in1.5 mm
11:40 PM 48.0°F8.9°C 46.0°F7.8°C 93% Calm Calm 0.9 mph1.4 kmh 30.12 in1020.0 mb 0.00 in0.0 mm 0.00 in0.0 mm 0.06 in1.5 mm
11:45 PM 48.0°F8.9°C 46.0°F7.8°C 93% Calm Calm 0.9 mph1.4 kmh 30.12 in1020.0 mb 0.00 in0.0 mm 0.00 in0.0 mm 0.06 in1.5 mm
11:50 PM 48.0°F8.9°C 46.0°F7.8°C 93% Calm Calm 0.9 mph1.4 kmh 30.12 in1020.0 mb 0.00 in0.0 mm 0.00 in0.0 mm 0.06 in1.5 mm
11:55 PM 48.0°F8.9°C 46.0°F7.8°C 93% Calm Calm 0.9 mph1.4 kmh 30.12 in1020.0 mb 0.00 in0.0 mm 0.00 in0.0 mm 0.06 in1.5 mm